sensor_id;sensor_type;location;lat;lon;timestamp;pressure;altitude;pressure_sealevel;temperature;humidity
28665;BME280;15850;47.524;7.814;2022-08-21T00:00:27;97911.28;;;16.43;100.00
28665;BME280;15850;47.524;7.814;2022-08-21T00:02:55;97889.84;;;16.26;100.00
28665;BME280;15850;47.524;7.814;2022-08-21T00:05:22;97886.84;;;16.08;100.00
28665;BME280;15850;47.524;7.814;2022-08-21T00:07:48;97867.13;;;16.02;100.00
28665;BME280;15850;47.524;7.814;2022-08-21T00:10:16;97901.59;;;16.23;100.00
28665;BME280;15850;47.524;7.814;2022-08-21T00:12:42;97906.53;;;16.13;100.00
28665;BME280;15850;47.524;7.814;2022-08-21T00:15:10;97904.94;;;16.12;100.00
28665;BME280;15850;47.524;7.814;2022-08-21T00:17:36;97911.66;;;15.92;100.00
28665;BME280;15850;47.524;7.814;2022-08-21T00:20:03;97875.66;;;15.70;100.00
28665;BME280;15850;47.524;7.814;2022-08-21T00:22:29;97910.38;;;15.86;100.00
28665;BME280;15850;47.524;7.814;2022-08-21T00:24:55;97903.69;;;15.83;100.00
28665;BME280;15850;47.524;7.814;2022-08-21T00:27:22;97905.28;;;15.84;100.00
28665;BME280;15850;47.524;7.814;2022-08-21T00:29:47;97881.94;;;15.51;100.00
28665;BME280;15850;47.524;7.814;2022-08-21T00:32:19;97879.31;;;15.59;100.00
28665;BME280;15850;47.524;7.814;2022-08-21T00:34:45;97850.31;;;15.35;100.00
28665;BME280;15850;47.524;7.814;2022-08-21T00:37:11;97919.88;;;15.69;100.00
28665;BME280;15850;47.524;7.814;2022-08-21T00:39:36;97659.09;;;14.17;100.00
28665;BME280;15850;47.524;7.814;2022-08-21T00:42:02;97903.63;;;15.80;100.00
28665;BME280;15850;47.524;7.814;2022-08-21T00:44:29;97910.03;;;15.87;100.00
28665;BME280;15850;47.524;7.814;2022-08-21T00:46:55;97903.91;;;15.97;100.00
28665;BME280;15850;47.524;7.814;2022-08-21T00:49:20;97913.28;;;16.19;100.00
28665;BME280;15850;47.524;7.814;2022-08-21T00:51:49;97900.91;;;16.29;100.00
28665;BME280;15850;47.524;7.814;2022-08-21T00:54:17;97897.13;;;16.41;100.00
28665;BME280;15850;47.524;7.814;2022-08-21T00:56:44;97871.78;;;16.25;100.00
28665;BME280;15850;47.524;7.814;2022-08-21T00:59:10;97881.69;;;16.29;100.00
28665;BME280;15850;47.524;7.814;2022-08-21T01:01:37;97884.28;;;16.22;100.00
28665;BME280;15850;47.524;7.814;2022-08-21T01:04:03;97898.66;;;16.38;100.00
28665;BME280;15850;47.524;7.814;2022-08-21T01:06:29;97891.53;;;16.34;100.00
28665;BME280;15850;47.524;7.814;2022-08-21T01:08:54;97895.91;;;16.38;100.00
28665;BME280;15850;47.524;7.814;2022-08-21T01:11:20;97794.06;;;15.90;100.00
28665;BME280;15850;47.524;7.814;2022-08-21T01:13:46;97869.72;;;16.44;100.00
28665;BME280;15850;47.524;7.814;2022-08-21T01:16:17;97893.16;;;16.65;100.00
28665;BME280;15850;47.524;7.814;2022-08-21T01:18:45;97871.38;;;16.49;100.00
28665;BME280;15850;47.524;7.814;2022-08-21T01:21:15;97880.44;;;16.53;100.00
28665;BME280;15850;47.524;7.814;2022-08-21T01:23:44;97855.50;;;16.39;100.00
28665;BME280;15850;47.524;7.814;2022-08-21T01:26:12;97885.03;;;16.45;100.00
28665;BME280;15850;47.524;7.814;2022-08-21T01:28:42;97834.06;;;16.18;100.00
28665;BME280;15850;47.524;7.814;2022-08-21T01:31:12;97804.25;;;15.90;100.00
28665;BME280;15850;47.524;7.814;2022-08-21T01:33:39;97879.28;;;16.28;100.00
28665;BME280;15850;47.524;7.814;2022-08-21T01:36:05;97683.94;;;14.89;100.00
28665;BME280;15850;47.524;7.814;2022-08-21T01:38:32;97870.59;;;15.99;100.00
28665;BME280;15850;47.524;7.814;2022-08-21T01:40:58;97870.94;;;15.71;100.00
28665;BME280;15850;47.524;7.814;2022-08-21T01:43:24;97705.09;;;14.50;100.00
28665;BME280;15850;47.524;7.814;2022-08-21T01:45:49;97782.75;;;15.00;100.00
28665;BME280;15850;47.524;7.814;2022-08-21T01:48:15;97641.03;;;14.12;100.00
28665;BME280;15850;47.524;7.814;2022-08-21T01:50:40;97837.56;;;15.23;100.00
28665;BME280;15850;47.524;7.814;2022-08-21T01:53:06;97569.38;;;13.45;100.00
28665;BME280;15850;47.524;7.814;2022-08-21T01:55:33;97777.53;;;14.72;100.00
28665;BME280;15850;47.524;7.814;2022-08-21T01:57:59;97736.84;;;14.51;100.00
28665;BME280;15850;47.524;7.814;2022-08-21T02:00:25;97860.22;;;15.43;100.00
28665;BME280;15850;47.524;7.814;2022-08-21T02:02:51;97860.63;;;15.41;100.00
28665;BME280;15850;47.524;7.814;2022-08-21T02:05:17;97641.19;;;14.00;100.00
28665;BME280;15850;47.524;7.814;2022-08-21T02:07:45;97863.28;;;15.38;100.00
28665;BME280;15850;47.524;7.814;2022-08-21T02:10:13;97819.69;;;15.10;100.00
28665;BME280;15850;47.524;7.814;2022-08-21T02:12:41;97857.88;;;15.41;100.00
28665;BME280;15850;47.524;7.814;2022-08-21T02:15:07;97845.22;;;15.33;100.00
28665;BME280;15850;47.524;7.814;2022-08-21T02:17:40;97827.69;;;15.18;100.00
28665;BME280;15850;47.524;7.814;2022-08-21T02:20:08;97860.56;;;15.61;100.00
28665;BME280;15850;47.524;7.814;2022-08-21T02:22:33;97858.13;;;15.56;100.00
28665;BME280;15850;47.524;7.814;2022-08-21T02:24:59;97856.81;;;15.49;100.00
28665;BME280;15850;47.524;7.814;2022-08-21T02:27:25;97856.72;;;15.42;100.00
28665;BME280;15850;47.524;7.814;2022-08-21T02:29:53;97768.78;;;14.86;100.00
28665;BME280;15850;47.524;7.814;2022-08-21T02:32:18;97825.16;;;15.29;100.00
28665;BME280;15850;47.524;7.814;2022-08-21T02:34:44;97860.13;;;15.59;100.00
28665;BME280;15850;47.524;7.814;2022-08-21T02:37:11;97807.97;;;15.32;100.00
28665;BME280;15850;47.524;7.814;2022-08-21T02:39:37;97853.31;;;15.72;100.00
28665;BME280;15850;47.524;7.814;2022-08-21T02:42:03;97804.16;;;15.37;100.00
28665;BME280;15850;47.524;7.814;2022-08-21T02:44:28;97713.50;;;14.80;100.00
28665;BME280;15850;47.524;7.814;2022-08-21T02:46:55;97850.22;;;15.73;100.00
28665;BME280;15850;47.524;7.814;2022-08-21T02:49:21;97810.16;;;15.46;100.00
28665;BME280;15850;47.524;7.814;2022-08-21T02:51:46;97812.22;;;15.52;100.00
28665;BME280;15850;47.524;7.814;2022-08-21T02:54:12;97848.38;;;15.81;100.00
28665;BME280;15850;47.524;7.814;2022-08-21T02:56:37;97848.03;;;15.83;100.00
28665;BME280;15850;47.524;7.814;2022-08-21T02:59:03;97755.53;;;15.34;100.00
28665;BME280;15850;47.524;7.814;2022-08-21T03:01:28;97760.69;;;15.39;100.00
28665;BME280;15850;47.524;7.814;2022-08-21T03:03:55;97735.91;;;15.32;100.00
28665;BME280;15850;47.524;7.814;2022-08-21T03:06:22;97847.03;;;15.94;100.00
28665;BME280;15850;47.524;7.814;2022-08-21T03:08:48;97848.78;;;16.06;100.00
28665;BME280;15850;47.524;7.814;2022-08-21T03:11:14;97842.88;;;16.04;100.00
28665;BME280;15850;47.524;7.814;2022-08-21T03:13:40;97846.03;;;16.06;100.00
28665;BME280;15850;47.524;7.814;2022-08-21T03:16:06;97842.03;;;16.00;100.00
28665;BME280;15850;47.524;7.814;2022-08-21T03:18:33;97838.44;;;15.96;100.00
28665;BME280;15850;47.524;7.814;2022-08-21T03:21:00;97747.84;;;15.43;100.00
28665;BME280;15850;47.524;7.814;2022-08-21T03:23:25;97757.19;;;15.65;100.00
28665;BME280;15850;47.524;7.814;2022-08-21T03:25:51;97854.38;;;16.13;100.00
28665;BME280;15850;47.524;7.814;2022-08-21T03:28:23;97803.13;;;15.94;100.00
28665;BME280;15850;47.524;7.814;2022-08-21T03:30:51;97781.22;;;15.71;100.00
28665;BME280;15850;47.524;7.814;2022-08-21T03:33:17;97789.88;;;15.73;100.00
28665;BME280;15850;47.524;7.814;2022-08-21T03:35:45;97841.06;;;16.15;100.00
28665;BME280;15850;47.524;7.814;2022-08-21T03:38:13;97696.59;;;15.20;100.00
28665;BME280;15850;47.524;7.814;2022-08-21T03:40:39;97736.13;;;15.46;100.00
28665;BME280;15850;47.524;7.814;2022-08-21T03:43:05;97840.13;;;16.04;100.00
28665;BME280;15850;47.524;7.814;2022-08-21T03:45:30;97840.97;;;16.08;100.00
28665;BME280;15850;47.524;7.814;2022-08-21T03:47:58;97835.06;;;16.06;100.00
28665;BME280;15850;47.524;7.814;2022-08-21T03:50:25;97639.75;;;14.68;100.00
28665;BME280;15850;47.524;7.814;2022-08-21T03:52:51;97797.91;;;15.63;100.00
28665;BME280;15850;47.524;7.814;2022-08-21T03:55:18;97844.97;;;15.88;100.00
28665;BME280;15850;47.524;7.814;2022-08-21T03:57:44;97844.13;;;15.84;100.00
28665;BME280;15850;47.524;7.814;2022-08-21T04:00:11;97791.84;;;15.50;100.00
28665;BME280;15850;47.524;7.814;2022-08-21T04:02:37;97829.03;;;15.70;100.00
28665;BME280;15850;47.524;7.814;2022-08-21T04:05:04;97849.28;;;15.66;100.00
28665;BME280;15850;47.524;7.814;2022-08-21T04:07:29;97738.25;;;14.84;100.00
28665;BME280;15850;47.524;7.814;2022-08-21T04:09:55;97724.75;;;14.75;100.00
28665;BME280;15850;47.524;7.814;2022-08-21T04:12:22;97851.44;;;15.53;100.00
28665;BME280;15850;47.524;7.814;2022-08-21T04:14:48;97849.81;;;15.52;100.00
28665;BME280;15850;47.524;7.814;2022-08-21T04:17:13;97606.06;;;14.02;100.00
28665;BME280;15850;47.524;7.814;2022-08-21T04:19:39;97861.41;;;15.42;100.00
28665;BME280;15850;47.524;7.814;2022-08-21T04:22:04;97737.09;;;14.65;100.00
28665;BME280;15850;47.524;7.814;2022-08-21T04:24:30;97854.19;;;15.53;100.00
28665;BME280;15850;47.524;7.814;2022-08-21T04:26:55;97850.31;;;15.58;100.00
28665;BME280;15850;47.524;7.814;2022-08-21T04:29:22;97635.84;;;14.26;100.00
28665;BME280;15850;47.524;7.814;2022-08-21T04:31:48;97743.63;;;14.80;100.00
28665;BME280;15850;47.524;7.814;2022-08-21T04:34:14;97855.28;;;15.71;100.00
28665;BME280;15850;47.524;7.814;2022-08-21T04:36:39;97679.75;;;14.53;100.00
28665;BME280;15850;47.524;7.814;2022-08-21T04:39:05;97847.78;;;15.68;100.00
28665;BME280;15850;47.524;7.814;2022-08-21T04:41:30;97857.28;;;15.74;100.00
28665;BME280;15850;47.524;7.814;2022-08-21T04:43:56;97864.16;;;15.65;100.00
28665;BME280;15850;47.524;7.814;2022-08-21T04:46:23;97859.94;;;15.67;100.00
28665;BME280;15850;47.524;7.814;2022-08-21T04:48:49;97784.28;;;15.20;100.00
28665;BME280;15850;47.524;7.814;2022-08-21T04:51:17;97863.00;;;15.89;100.00
28665;BME280;15850;47.524;7.814;2022-08-21T04:53:47;97863.81;;;15.89;100.00
28665;BME280;15850;47.524;7.814;2022-08-21T04:56:18;97824.75;;;15.73;100.00
28665;BME280;15850;47.524;7.814;2022-08-21T04:58:45;97867.88;;;15.99;100.00
28665;BME280;15850;47.524;7.814;2022-08-21T05:01:16;97671.94;;;14.74;100.00
28665;BME280;15850;47.524;7.814;2022-08-21T05:03:44;97432.75;;;13.25;100.00
28665;BME280;15850;47.524;7.814;2022-08-21T05:06:12;97818.09;;;15.74;100.00
28665;BME280;15850;47.524;7.814;2022-08-21T05:08:40;97862.03;;;16.01;100.00
28665;BME280;15850;47.524;7.814;2022-08-21T05:11:06;97844.34;;;15.98;100.00
28665;BME280;15850;47.524;7.814;2022-08-21T05:13:32;97782.34;;;15.67;100.00
28665;BME280;15850;47.524;7.814;2022-08-21T05:15:58;97870.06;;;16.39;100.00
28665;BME280;15850;47.524;7.814;2022-08-21T05:18:23;97842.56;;;16.36;100.00
28665;BME280;15850;47.524;7.814;2022-08-21T05:20:50;97868.16;;;16.43;100.00
28665;BME280;15850;47.524;7.814;2022-08-21T05:23:16;97866.94;;;16.41;100.00
28665;BME280;15850;47.524;7.814;2022-08-21T05:25:42;97869.25;;;16.65;100.00
28665;BME280;15850;47.524;7.814;2022-08-21T05:28:09;97874.38;;;16.71;100.00
28665;BME280;15850;47.524;7.814;2022-08-21T05:30:36;97871.13;;;16.61;100.00
28665;BME280;15850;47.524;7.814;2022-08-21T05:33:04;97867.13;;;16.55;100.00
28665;BME280;15850;47.524;7.814;2022-08-21T05:35:31;97830.06;;;16.42;100.00
28665;BME280;15850;47.524;7.814;2022-08-21T05:37:59;97868.06;;;16.66;100.00
28665;BME280;15850;47.524;7.814;2022-08-21T05:40:25;97833.66;;;16.46;100.00
28665;BME280;15850;47.524;7.814;2022-08-21T05:42:52;97874.72;;;16.65;100.00
28665;BME280;15850;47.524;7.814;2022-08-21T05:45:18;97877.78;;;16.60;100.00
28665;BME280;15850;47.524;7.814;2022-08-21T05:47:43;97873.56;;;16.66;100.00
28665;BME280;15850;47.524;7.814;2022-08-21T05:50:09;97876.94;;;16.83;100.00
28665;BME280;15850;47.524;7.814;2022-08-21T05:52:35;97814.84;;;16.18;100.00
28665;BME280;15850;47.524;7.814;2022-08-21T05:55:02;97895.63;;;16.74;100.00
28665;BME280;15850;47.524;7.814;2022-08-21T05:57:28;97882.56;;;16.94;100.00
28665;BME280;15850;47.524;7.814;2022-08-21T05:59:53;97635.75;;;15.38;100.00
28665;BME280;15850;47.524;7.814;2022-08-21T06:02:19;97891.44;;;17.13;100.00
28665;BME280;15850;47.524;7.814;2022-08-21T06:04:45;97359.75;;;13.68;100.00
28665;BME280;15850;47.524;7.814;2022-08-21T06:07:11;97869.44;;;17.13;100.00
28665;BME280;15850;47.524;7.814;2022-08-21T06:09:37;97831.44;;;16.85;100.00
28665;BME280;15850;47.524;7.814;2022-08-21T06:12:05;97687.94;;;15.98;100.00
28665;BME280;15850;47.524;7.814;2022-08-21T06:14:31;97522.06;;;14.98;100.00
28665;BME280;15850;47.524;7.814;2022-08-21T06:17:01;97871.88;;;17.59;100.00
28665;BME280;15850;47.524;7.814;2022-08-21T06:19:27;97874.53;;;17.49;100.00
28665;BME280;15850;47.524;7.814;2022-08-21T06:21:53;97758.94;;;16.97;100.00
28665;BME280;15850;47.524;7.814;2022-08-21T06:24:18;97875.66;;;17.81;100.00
28665;BME280;15850;47.524;7.814;2022-08-21T06:26:44;97864.06;;;18.10;100.00
28665;BME280;15850;47.524;7.814;2022-08-21T06:29:12;97821.47;;;17.93;100.00
28665;BME280;15850;47.524;7.814;2022-08-21T06:31:39;97734.06;;;17.27;100.00
28665;BME280;15850;47.524;7.814;2022-08-21T06:34:04;97865.59;;;18.03;100.00
28665;BME280;15850;47.524;7.814;2022-08-21T06:36:30;97698.09;;;16.99;100.00
28665;BME280;15850;47.524;7.814;2022-08-21T06:38:55;97862.84;;;18.03;100.00
28665;BME280;15850;47.524;7.814;2022-08-21T06:41:21;97851.38;;;17.98;100.00
28665;BME280;15850;47.524;7.814;2022-08-21T06:43:46;97823.72;;;17.80;100.00
28665;BME280;15850;47.524;7.814;2022-08-21T06:46:13;97837.22;;;17.51;100.00
28665;BME280;15850;47.524;7.814;2022-08-21T06:48:39;97864.03;;;18.06;100.00
28665;BME280;15850;47.524;7.814;2022-08-21T06:51:05;97862.59;;;18.23;100.00
28665;BME280;15850;47.524;7.814;2022-08-21T06:53:30;97816.41;;;17.54;100.00
28665;BME280;15850;47.524;7.814;2022-08-21T06:55:56;97879.69;;;17.95;100.00
28665;BME280;15850;47.524;7.814;2022-08-21T06:58:22;97868.06;;;18.19;100.00
28665;BME280;15850;47.524;7.814;2022-08-21T07:00:49;97808.78;;;17.81;100.00
28665;BME280;15850;47.524;7.814;2022-08-21T07:03:22;97868.94;;;18.34;100.00
28665;BME280;15850;47.524;7.814;2022-08-21T07:05:48;97844.41;;;18.11;100.00
28665;BME280;15850;47.524;7.814;2022-08-21T07:08:14;97867.44;;;18.47;100.00
28665;BME280;15850;47.524;7.814;2022-08-21T07:10:40;97828.34;;;18.20;100.00
28665;BME280;15850;47.524;7.814;2022-08-21T07:13:05;97857.00;;;18.12;100.00
28665;BME280;15850;47.524;7.814;2022-08-21T07:15:31;97876.91;;;18.46;100.00
28665;BME280;15850;47.524;7.814;2022-08-21T07:17:57;97494.91;;;15.49;100.00
28665;BME280;15850;47.524;7.814;2022-08-21T07:20:25;97781.38;;;17.47;100.00
28665;BME280;15850;47.524;7.814;2022-08-21T07:22:50;97881.28;;;17.96;100.00
28665;BME280;15850;47.524;7.814;2022-08-21T07:25:16;97411.53;;;14.56;100.00
28665;BME280;15850;47.524;7.814;2022-08-21T07:27:41;97883.50;;;17.83;100.00
28665;BME280;15850;47.524;7.814;2022-08-21T07:30:08;97882.13;;;18.07;100.00
28665;BME280;15850;47.524;7.814;2022-08-21T07:32:33;97863.63;;;18.04;100.00
28665;BME280;15850;47.524;7.814;2022-08-21T07:34:59;97880.78;;;18.35;100.00
28665;BME280;15850;47.524;7.814;2022-08-21T07:37:26;97875.59;;;18.29;100.00
28665;BME280;15850;47.524;7.814;2022-08-21T07:39:52;97894.28;;;18.02;100.00
28665;BME280;15850;47.524;7.814;2022-08-21T07:42:17;97873.28;;;17.83;100.00
28665;BME280;15850;47.524;7.814;2022-08-21T07:44:43;97730.28;;;16.98;100.00
28665;BME280;15850;47.524;7.814;2022-08-21T07:47:08;97646.25;;;16.56;100.00
28665;BME280;15850;47.524;7.814;2022-08-21T07:49:34;97890.00;;;18.05;100.00
28665;BME280;15850;47.524;7.814;2022-08-21T07:52:00;97893.06;;;17.96;100.00
28665;BME280;15850;47.524;7.814;2022-08-21T07:54:27;97773.75;;;17.26;100.00
28665;BME280;15850;47.524;7.814;2022-08-21T07:56:53;97650.56;;;16.57;100.00
28665;BME280;15850;47.524;7.814;2022-08-21T07:59:18;97869.59;;;18.13;100.00
28665;BME280;15850;47.524;7.814;2022-08-21T08:01:44;97872.00;;;18.18;100.00
28665;BME280;15850;47.524;7.814;2022-08-21T08:04:10;97870.19;;;18.47;100.00
28665;BME280;15850;47.524;7.814;2022-08-21T08:06:35;97522.28;;;16.13;100.00
28665;BME280;15850;47.524;7.814;2022-08-21T08:09:04;97894.22;;;18.50;100.00
28665;BME280;15850;47.524;7.814;2022-08-21T08:11:31;97274.81;;;14.67;100.00
28665;BME280;15850;47.524;7.814;2022-08-21T08:13:57;97843.97;;;18.68;100.00
28665;BME280;15850;47.524;7.814;2022-08-21T08:16:22;97832.63;;;18.87;100.00
28665;BME280;15850;47.524;7.814;2022-08-21T08:18:48;97528.88;;;17.01;100.00
28665;BME280;15850;47.524;7.814;2022-08-21T08:21:14;97824.44;;;19.16;100.00
28665;BME280;15850;47.524;7.814;2022-08-21T08:23:40;97566.16;;;17.65;100.00
28665;BME280;15850;47.524;7.814;2022-08-21T08:26:06;97447.22;;;17.02;100.00
28665;BME280;15850;47.524;7.814;2022-08-21T08:28:33;97543.75;;;17.59;100.00
28665;BME280;15850;47.524;7.814;2022-08-21T08:30:59;97831.66;;;19.88;100.00
28665;BME280;15850;47.524;7.814;2022-08-21T08:33:25;97795.34;;;19.83;100.00
28665;BME280;15850;47.524;7.814;2022-08-21T08:35:51;97834.41;;;20.13;100.00
28665;BME280;15850;47.524;7.814;2022-08-21T08:38:18;97827.28;;;20.12;100.00
28665;BME280;15850;47.524;7.814;2022-08-21T08:40:50;97833.53;;;20.41;100.00
28665;BME280;15850;47.524;7.814;2022-08-21T08:43:18;97822.13;;;20.32;100.00
28665;BME280;15850;47.524;7.814;2022-08-21T08:45:50;97831.19;;;20.26;100.00
28665;BME280;15850;47.524;7.814;2022-08-21T08:48:26;97822.91;;;20.36;100.00
28665;BME280;15850;47.524;7.814;2022-08-21T08:50:59;97782.72;;;20.07;100.00
28665;BME280;15850;47.524;7.814;2022-08-21T08:53:30;97817.38;;;20.40;100.00
28665;BME280;15850;47.524;7.814;2022-08-21T08:55:57;97816.56;;;20.54;100.00
28665;BME280;15850;47.524;7.814;2022-08-21T08:58:28;97805.13;;;20.52;100.00
28665;BME280;15850;47.524;7.814;2022-08-21T09:00:57;97712.19;;;19.74;100.00
28665;BME280;15850;47.524;7.814;2022-08-21T09:03:25;97816.97;;;20.52;100.00
28665;BME280;15850;47.524;7.814;2022-08-21T09:05:56;97803.44;;;20.72;100.00
28665;BME280;15850;47.524;7.814;2022-08-21T09:08:36;97548.69;;;19.16;100.00
28665;BME280;15850;47.524;7.814;2022-08-21T09:11:19;97726.53;;;20.53;100.00
28665;BME280;15850;47.524;7.814;2022-08-21T09:13:54;97812.44;;;20.98;100.00
28665;BME280;15850;47.524;7.814;2022-08-21T09:16:29;97795.91;;;20.83;100.00
28665;BME280;15850;47.524;7.814;2022-08-21T09:19:04;97776.59;;;20.76;100.00
28665;BME280;15850;47.524;7.814;2022-08-21T09:21:38;97797.00;;;21.04;100.00
28665;BME280;15850;47.524;7.814;2022-08-21T09:24:10;97790.56;;;21.21;100.00
28665;BME280;15850;47.524;7.814;2022-08-21T09:26:48;97779.13;;;21.19;100.00
28665;BME280;15850;47.524;7.814;2022-08-21T09:29:17;97819.34;;;21.38;100.00
28665;BME280;15850;47.524;7.814;2022-08-21T09:31:46;97611.38;;;20.28;100.00
28665;BME280;15850;47.524;7.814;2022-08-21T09:34:12;97783.31;;;21.45;100.00
28665;BME280;15850;47.524;7.814;2022-08-21T09:36:39;97782.56;;;21.34;100.00
28665;BME280;15850;47.524;7.814;2022-08-21T09:39:07;97778.25;;;21.33;100.00
28665;BME280;15850;47.524;7.814;2022-08-21T09:41:34;97772.56;;;21.54;100.00
28665;BME280;15850;47.524;7.814;2022-08-21T09:44:00;97771.69;;;21.65;100.00
28665;BME280;15850;47.524;7.814;2022-08-21T09:46:27;97734.19;;;21.56;100.00
28665;BME280;15850;47.524;7.814;2022-08-21T09:48:55;97573.72;;;20.56;100.00
28665;BME280;15850;47.524;7.814;2022-08-21T09:51:23;97457.00;;;19.85;100.00
28665;BME280;15850;47.524;7.814;2022-08-21T09:53:53;97585.25;;;20.96;100.00
28665;BME280;15850;47.524;7.814;2022-08-21T09:56:26;97256.16;;;18.92;100.00
28665;BME280;15850;47.524;7.814;2022-08-21T09:58:52;97446.09;;;20.19;100.00
28665;BME280;15850;47.524;7.814;2022-08-21T10:01:21;97549.81;;;20.87;100.00
28665;BME280;15850;47.524;7.814;2022-08-21T10:03:48;97198.25;;;18.92;100.00
28665;BME280;15850;47.524;7.814;2022-08-21T10:06:25;97745.56;;;22.45;100.00
28665;BME280;15850;47.524;7.814;2022-08-21T10:09:03;97684.66;;;22.03;100.00
28665;BME280;15850;47.524;7.814;2022-08-21T10:11:31;97756.72;;;22.38;100.00
28665;BME280;15850;47.524;7.814;2022-08-21T10:14:04;97296.28;;;19.56;100.00
28665;BME280;15850;47.524;7.814;2022-08-21T10:16:44;97162.56;;;18.71;100.00
28665;BME280;15850;47.524;7.814;2022-08-21T10:19:18;97340.66;;;20.28;100.00
28665;BME280;15850;47.524;7.814;2022-08-21T10:22:00;97723.25;;;22.56;100.00
28665;BME280;15850;47.524;7.814;2022-08-21T10:24:31;97707.41;;;22.56;100.00
28665;BME280;15850;47.524;7.814;2022-08-21T10:27:07;97703.19;;;22.75;100.00
28665;BME280;15850;47.524;7.814;2022-08-21T10:29:42;97328.13;;;20.20;100.00
28665;BME280;15850;47.524;7.814;2022-08-21T10:32:22;97554.78;;;21.78;100.00
28665;BME280;15850;47.524;7.814;2022-08-21T10:34:56;97466.16;;;21.14;100.00
28665;BME280;15850;47.524;7.814;2022-08-21T10:37:38;97445.03;;;21.30;100.00
28665;BME280;15850;47.524;7.814;2022-08-21T10:40:15;97599.94;;;22.37;100.00
28665;BME280;15850;47.524;7.814;2022-08-21T10:42:52;97697.91;;;23.38;100.00
28665;BME280;15850;47.524;7.814;2022-08-21T10:45:31;97713.53;;;23.76;100.00
28665;BME280;15850;47.524;7.814;2022-08-21T10:48:02;97713.25;;;23.70;100.00
28665;BME280;15850;47.524;7.814;2022-08-21T10:50:32;97635.56;;;23.19;100.00
28665;BME280;15850;47.524;7.814;2022-08-21T10:53:18;97708.28;;;23.58;100.00
28665;BME280;15850;47.524;7.814;2022-08-21T10:55:48;97709.13;;;23.55;100.00
28665;BME280;15850;47.524;7.814;2022-08-21T10:58:21;97709.53;;;23.30;100.00
28665;BME280;15850;47.524;7.814;2022-08-21T11:00:49;97706.50;;;23.44;100.00
28665;BME280;15850;47.524;7.814;2022-08-21T11:03:18;97515.13;;;22.43;100.00
28665;BME280;15850;47.524;7.814;2022-08-21T11:05:50;97636.94;;;23.55;100.00
28665;BME280;15850;47.524;7.814;2022-08-21T11:08:24;97518.81;;;22.83;100.00
28665;BME280;15850;47.524;7.814;2022-08-21T11:10:57;97315.03;;;21.27;100.00
28665;BME280;15850;47.524;7.814;2022-08-21T11:13:30;97673.53;;;23.93;100.00
28665;BME280;15850;47.524;7.814;2022-08-21T11:16:05;97567.13;;;23.33;100.00
28665;BME280;15850;47.524;7.814;2022-08-21T11:18:38;97665.78;;;24.24;100.00
28665;BME280;15850;47.524;7.814;2022-08-21T11:21:26;97639.31;;;24.16;97.35
28665;BME280;15850;47.524;7.814;2022-08-21T11:23:59;97285.88;;;21.49;100.00
28665;BME280;15850;47.524;7.814;2022-08-21T11:26:30;97362.91;;;22.52;94.50
28665;BME280;15850;47.524;7.814;2022-08-21T11:29:04;97156.72;;;21.43;92.73
28665;BME280;15850;47.524;7.814;2022-08-21T11:31:42;97681.19;;;25.01;91.83
28665;BME280;15850;47.524;7.814;2022-08-21T11:34:22;97678.75;;;25.03;93.73
28665;BME280;15850;47.524;7.814;2022-08-21T11:36:55;97672.66;;;24.56;100.00
28665;BME280;15850;47.524;7.814;2022-08-21T11:39:28;97677.66;;;24.65;96.12
28665;BME280;15850;47.524;7.814;2022-08-21T11:42:04;97661.84;;;24.78;93.02
28665;BME280;15850;47.524;7.814;2022-08-21T11:44:43;97681.56;;;24.67;90.39
28665;BME280;15850;47.524;7.814;2022-08-21T11:47:17;97670.59;;;24.20;96.33
28665;BME280;15850;47.524;7.814;2022-08-21T11:49:56;97643.13;;;24.06;98.84
28665;BME280;15850;47.524;7.814;2022-08-21T11:52:26;97601.75;;;23.48;99.47
28665;BME280;15850;47.524;7.814;2022-08-21T11:54:59;97689.88;;;24.11;98.80
28665;BME280;15850;47.524;7.814;2022-08-21T11:57:32;97676.59;;;23.79;97.43
28665;BME280;15850;47.524;7.814;2022-08-21T12:00:04;97667.16;;;23.73;98.70
28665;BME280;15850;47.524;7.814;2022-08-21T12:02:41;97337.22;;;20.93;100.00
28665;BME280;15850;47.524;7.814;2022-08-21T12:05:11;97394.94;;;21.21;100.00
28665;BME280;15850;47.524;7.814;2022-08-21T12:07:39;97552.38;;;22.42;100.00
28665;BME280;15850;47.524;7.814;2022-08-21T12:10:10;97618.56;;;22.63;100.00
28665;BME280;15850;47.524;7.814;2022-08-21T12:12:39;97670.47;;;22.90;100.00
28665;BME280;15850;47.524;7.814;2022-08-21T12:15:23;97612.31;;;23.10;97.54
28665;BME280;15850;47.524;7.814;2022-08-21T12:17:56;97645.16;;;23.15;100.00
28665;BME280;15850;47.524;7.814;2022-08-21T12:20:33;97647.63;;;23.09;100.00
28665;BME280;15850;47.524;7.814;2022-08-21T12:23:05;97592.09;;;22.86;100.00
28665;BME280;15850;47.524;7.814;2022-08-21T12:25:38;97645.72;;;23.50;100.00
28665;BME280;15850;47.524;7.814;2022-08-21T12:28:08;97646.09;;;23.75;97.91
28665;BME280;15850;47.524;7.814;2022-08-21T12:30:36;97642.81;;;23.80;92.01
28665;BME280;15850;47.524;7.814;2022-08-21T12:33:04;97635.13;;;24.08;91.70
28665;BME280;15850;47.524;7.814;2022-08-21T12:35:33;97320.16;;;22.06;83.49
28665;BME280;15850;47.524;7.814;2022-08-21T12:38:06;97590.53;;;24.15;82.54
28665;BME280;15850;47.524;7.814;2022-08-21T12:40:42;97554.41;;;23.95;84.29
28665;BME280;15850;47.524;7.814;2022-08-21T12:43:14;97544.25;;;24.25;83.54
28665;BME280;15850;47.524;7.814;2022-08-21T12:45:42;97633.34;;;25.06;84.18
28665;BME280;15850;47.524;7.814;2022-08-21T12:48:10;97601.78;;;24.97;77.58
28665;BME280;15850;47.524;7.814;2022-08-21T12:50:42;97432.78;;;24.03;78.90
28665;BME280;15850;47.524;7.814;2022-08-21T12:53:14;97645.03;;;25.34;77.25
28665;BME280;15850;47.524;7.814;2022-08-21T12:55:42;97145.81;;;22.39;78.71